Aviation Digital Data Service (ADDS)

Output produced by METARs form (1537 UTC 19 January 2019)
found at http://www.aviationweather.gov/metar/data/
 
METAR text: RPVP 191500Z 07010KT 9999 FEW020 26/21 Q1011 RMK A2985
Conditions at: RPVP (PUERTO PRINCESA , PH) observed 1500 UTC 19 January 2019
Temperature: 26.0°C (79°F)
Dewpoint: 21.0°C (70°F) [RH = 74%]
Pressure (altimeter): 29.85 inches Hg (1011.0 mb)
Winds: from the ENE (70 degrees) at 12 MPH (10 knots; 5.1 m/s)
Visibility: 6 or more miles (10+ km)
Ceiling: at least 12,000 feet AGL
Clouds: few clouds at 2000 feet AGL
Weather: no significant weather observed at this time

METAR text: RPVP 191200Z 09018KT 9999 FEW020 27/23 Q1010 RMK A2983
Conditions at: RPVP (PUERTO PRINCESA , PH) observed 1200 UTC 19 January 2019
Temperature: 27.0°C (81°F)
Dewpoint: 23.0°C (73°F) [RH = 79%]
Pressure (altimeter): 29.82 inches Hg (1010.0 mb)
Winds: from the E (90 degrees) at 21 MPH (18 knots; 9.3 m/s)
Visibility: 6 or more miles (10+ km)
Ceiling: at least 12,000 feet AGL
Clouds: few clouds at 2000 feet AGL
Weather: no significant weather observed at this time

METAR text: RPVP 191100Z 09018KT 9999 FEW020 27/22 Q1010 RMK A2983
Conditions at: RPVP (PUERTO PRINCESA , PH) observed 1100 UTC 19 January 2019
Temperature: 27.0°C (81°F)
Dewpoint: 22.0°C (72°F) [RH = 74%]
Pressure (altimeter): 29.82 inches Hg (1010.0 mb)
Winds: from the E (90 degrees) at 21 MPH (18 knots; 9.3 m/s)
Visibility: 6 or more miles (10+ km)
Ceiling: at least 12,000 feet AGL
Clouds: few clouds at 2000 feet AGL
Weather: no significant weather observed at this time

METAR text: RPVP 191000Z 09020KT 9999 FEW019 28/22 Q1010 RMK A2983
Conditions at: RPVP (PUERTO PRINCESA , PH) observed 1000 UTC 19 January 2019
Temperature: 28.0°C (82°F)
Dewpoint: 22.0°C (72°F) [RH = 70%]
Pressure (altimeter): 29.82 inches Hg (1010.0 mb)
Winds: from the E (90 degrees) at 23 MPH (20 knots; 10.3 m/s)
Visibility: 6 or more miles (10+ km)
Ceiling: at least 12,000 feet AGL
Clouds: few clouds at 1900 feet AGL
Weather: no significant weather observed at this time

METAR text: RPVP 190900Z 09020KT 9999 FEW019 29/23 Q1009 RMK A2980
Conditions at: RPVP (PUERTO PRINCESA , PH) observed 0900 UTC 19 January 2019
Temperature: 29.0°C (84°F)
Dewpoint: 23.0°C (73°F) [RH = 70%]
Pressure (altimeter): 29.79 inches Hg (1009.0 mb)
Winds: from the E (90 degrees) at 23 MPH (20 knots; 10.3 m/s)
Visibility: 6 or more miles (10+ km)
Ceiling: at least 12,000 feet AGL
Clouds: few clouds at 1900 feet AGL
Weather: no significant weather observed at this time

METAR text: RPVP 190800Z 09020KT 9999 FEW019 30/23 Q1009 RMK A2980
Conditions at: RPVP (PUERTO PRINCESA , PH) observed 0800 UTC 19 January 2019
Temperature: 30.0°C (86°F)
Dewpoint: 23.0°C (73°F) [RH = 66%]
Pressure (altimeter): 29.79 inches Hg (1009.0 mb)
Winds: from the E (90 degrees) at 23 MPH (20 knots; 10.3 m/s)
Visibility: 6 or more miles (10+ km)
Ceiling: at least 12,000 feet AGL
Clouds: few clouds at 1900 feet AGL
Weather: no significant weather observed at this time

METAR text: RPVP 190700Z 07016KT 9999 FEW019 31/23 Q1009 RMK A2980
Conditions at: RPVP (PUERTO PRINCESA , PH) observed 0700 UTC 19 January 2019
Temperature: 31.0°C (88°F)
Dewpoint: 23.0°C (73°F) [RH = 63%]
Pressure (altimeter): 29.79 inches Hg (1009.0 mb)
Winds: from the ENE (70 degrees) at 18 MPH (16 knots; 8.2 m/s)
Visibility: 6 or more miles (10+ km)
Ceiling: at least 12,000 feet AGL
Clouds: few clouds at 1900 feet AGL
Weather: no significant weather observed at this time

METAR text: RPVP 190600Z 07014KT 9999 FEW019 31/24 Q1010 RMK A2983
Conditions at: RPVP (PUERTO PRINCESA , PH) observed 0600 UTC 19 January 2019
Temperature: 31.0°C (88°F)
Dewpoint: 24.0°C (75°F) [RH = 66%]
Pressure (altimeter): 29.82 inches Hg (1010.0 mb)
Winds: from the ENE (70 degrees) at 16 MPH (14 knots; 7.2 m/s)
Visibility: 6 or more miles (10+ km)
Ceiling: at least 12,000 feet AGL
Clouds: few clouds at 1900 feet AGL
Weather: no significant weather observed at this time

METAR text: RPVP 190500Z 07010KT 9999 FEW020 32/20 Q1011 RMK A2985
Conditions at: RPVP (PUERTO PRINCESA , PH) observed 0500 UTC 19 January 2019
Temperature: 32.0°C (90°F)
Dewpoint: 20.0°C (68°F) [RH = 49%]
Pressure (altimeter): 29.85 inches Hg (1011.0 mb)
Winds: from the ENE (70 degrees) at 12 MPH (10 knots; 5.1 m/s)
Visibility: 6 or more miles (10+ km)
Ceiling: at least 12,000 feet AGL
Clouds: few clouds at 2000 feet AGL
Weather: no significant weather observed at this time

METAR text: RPVP 190400Z 04010KT 9999 FEW020 31/19 Q1012 RMK A2988
Conditions at: RPVP (PUERTO PRINCESA , PH) observed 0400 UTC 19 January 2019
Temperature: 31.0°C (88°F)
Dewpoint: 19.0°C (66°F) [RH = 49%]
Pressure (altimeter): 29.88 inches Hg (1012.0 mb)
Winds: from the NE (40 degrees) at 12 MPH (10 knots; 5.1 m/s)
Visibility: 6 or more miles (10+ km)
Ceiling: at least 12,000 feet AGL
Clouds: few clouds at 2000 feet AGL
Weather: no significant weather observed at this time

METAR text: RPVP 190300Z 09010KT 9999 FEW020 30/21 Q1012 RMK A2988
Conditions at: RPVP (PUERTO PRINCESA , PH) observed 0300 UTC 19 January 2019
Temperature: 30.0°C (86°F)
Dewpoint: 21.0°C (70°F) [RH = 59%]
Pressure (altimeter): 29.88 inches Hg (1012.0 mb)
Winds: from the E (90 degrees) at 12 MPH (10 knots; 5.1 m/s)
Visibility: 6 or more miles (10+ km)
Ceiling: at least 12,000 feet AGL
Clouds: few clouds at 2000 feet AGL
Weather: no significant weather observed at this time

METAR text: RPVP 190200Z 04010KT 9999 FEW020 29/21 Q1013 RMK A2991
Conditions at: RPVP (PUERTO PRINCESA , PH) observed 0200 UTC 19 January 2019
Temperature: 29.0°C (84°F)
Dewpoint: 21.0°C (70°F) [RH = 62%]
Pressure (altimeter): 29.91 inches Hg (1013.0 mb)
Winds: from the NE (40 degrees) at 12 MPH (10 knots; 5.1 m/s)
Visibility: 6 or more miles (10+ km)
Ceiling: at least 12,000 feet AGL
Clouds: few clouds at 2000 feet AGL
Weather: no significant weather observed at this time

METAR text: RPVP 190100Z 31006KT 9999 FEW020 27/21 Q1013 RMK A2991
Conditions at: RPVP (PUERTO PRINCESA , PH) observed 0100 UTC 19 January 2019
Temperature: 27.0°C (81°F)
Dewpoint: 21.0°C (70°F) [RH = 70%]
Pressure (altimeter): 29.91 inches Hg (1013.0 mb)
Winds: from the NW (310 degrees) at 7 MPH (6 knots; 3.1 m/s)
Visibility: 6 or more miles (10+ km)
Ceiling: at least 12,000 feet AGL
Clouds: few clouds at 2000 feet AGL
Weather: no significant weather observed at this time

METAR text: RPVP 190000Z 27006KT 9999 FEW020 24/22 Q1013 RMK A2991
Conditions at: RPVP (PUERTO PRINCESA , PH) observed 0000 UTC 19 January 2019
Temperature: 24.0°C (75°F)
Dewpoint: 22.0°C (72°F) [RH = 89%]
Pressure (altimeter): 29.91 inches Hg (1013.0 mb)
Winds: from the W (270 degrees) at 7 MPH (6 knots; 3.1 m/s)
Visibility: 6 or more miles (10+ km)
Ceiling: at least 12,000 feet AGL
Clouds: few clouds at 2000 feet AGL
Weather: no significant weather observed at this time

METAR text: RPVP 182300Z 27006KT 9999 FEW020 23/21 Q1012 RMK A2988
Conditions at: RPVP (PUERTO PRINCESA , PH) observed 2300 UTC 18 January 2019
Temperature: 23.0°C (73°F)
Dewpoint: 21.0°C (70°F) [RH = 89%]
Pressure (altimeter): 29.88 inches Hg (1012.0 mb)
Winds: from the W (270 degrees) at 7 MPH (6 knots; 3.1 m/s)
Visibility: 6 or more miles (10+ km)
Ceiling: at least 12,000 feet AGL
Clouds: few clouds at 2000 feet AGL
Weather: no significant weather observed at this time

METAR text: RPVP 182200Z 27006KT 9999 FEW020 24/21 Q1012 RMK A2988
Conditions at: RPVP (PUERTO PRINCESA , PH) observed 2200 UTC 18 January 2019
Temperature: 24.0°C (75°F)
Dewpoint: 21.0°C (70°F) [RH = 83%]
Pressure (altimeter): 29.88 inches Hg (1012.0 mb)
Winds: from the W (270 degrees) at 7 MPH (6 knots; 3.1 m/s)
Visibility: 6 or more miles (10+ km)
Ceiling: at least 12,000 feet AGL
Clouds: few clouds at 2000 feet AGL
Weather: no significant weather observed at this time

METAR text: RPVP 182100Z 27006KT 9999 FEW020 24/22 Q1011 RMK A2985
Conditions at: RPVP (PUERTO PRINCESA , PH) observed 2100 UTC 18 January 2019
Temperature: 24.0°C (75°F)
Dewpoint: 22.0°C (72°F) [RH = 89%]
Pressure (altimeter): 29.85 inches Hg (1011.0 mb)
Winds: from the W (270 degrees) at 7 MPH (6 knots; 3.1 m/s)
Visibility: 6 or more miles (10+ km)
Ceiling: at least 12,000 feet AGL
Clouds: few clouds at 2000 feet AGL
Weather: no significant weather observed at this time

METAR text: RPVP 181800Z 07012KT 9999 FEW020 26/22 Q1012 RMK A2988
Conditions at: RPVP (PUERTO PRINCESA , PH) observed 1800 UTC 18 January 2019
Temperature: 26.0°C (79°F)
Dewpoint: 22.0°C (72°F) [RH = 79%]
Pressure (altimeter): 29.88 inches Hg (1012.0 mb)
Winds: from the ENE (70 degrees) at 14 MPH (12 knots; 6.2 m/s)
Visibility: 6 or more miles (10+ km)
Ceiling: at least 12,000 feet AGL
Clouds: few clouds at 2000 feet AGL
Weather: no significant weather observed at this time

METAR text: RPVP 181500Z 07012KT 9999 FEW020 26/21 Q1013 RMK A2991
Conditions at: RPVP (PUERTO PRINCESA , PH) observed 1500 UTC 18 January 2019
Temperature: 26.0°C (79°F)
Dewpoint: 21.0°C (70°F) [RH = 74%]
Pressure (altimeter): 29.91 inches Hg (1013.0 mb)
Winds: from the ENE (70 degrees) at 14 MPH (12 knots; 6.2 m/s)
Visibility: 6 or more miles (10+ km)
Ceiling: at least 12,000 feet AGL
Clouds: few clouds at 2000 feet AGL
Weather: no significant weather observed at this time

METAR text: RPVP 181200Z 09018KT 9999 FEW019 27/21 Q1012 RMK A2988
Conditions at: RPVP (PUERTO PRINCESA , PH) observed 1200 UTC 18 January 2019
Temperature: 27.0°C (81°F)
Dewpoint: 21.0°C (70°F) [RH = 70%]
Pressure (altimeter): 29.88 inches Hg (1012.0 mb)
Winds: from the E (90 degrees) at 21 MPH (18 knots; 9.3 m/s)
Visibility: 6 or more miles (10+ km)
Ceiling: at least 12,000 feet AGL
Clouds: few clouds at 1900 feet AGL
Weather: no significant weather observed at this time

METAR text: RPVP 181100Z 09018KT 9999 FEW019 27/22 Q1011 RMK A2985
Conditions at: RPVP (PUERTO PRINCESA , PH) observed 1100 UTC 18 January 2019
Temperature: 27.0°C (81°F)
Dewpoint: 22.0°C (72°F) [RH = 74%]
Pressure (altimeter): 29.85 inches Hg (1011.0 mb)
Winds: from the E (90 degrees) at 21 MPH (18 knots; 9.3 m/s)
Visibility: 6 or more miles (10+ km)
Ceiling: at least 12,000 feet AGL
Clouds: few clouds at 1900 feet AGL
Weather: no significant weather observed at this time

METAR text: RPVP 181000Z 09020KT 9999 FEW019 27/22 Q1010 RMK A2983
Conditions at: RPVP (PUERTO PRINCESA , PH) observed 1000 UTC 18 January 2019
Temperature: 27.0°C (81°F)
Dewpoint: 22.0°C (72°F) [RH = 74%]
Pressure (altimeter): 29.82 inches Hg (1010.0 mb)
Winds: from the E (90 degrees) at 23 MPH (20 knots; 10.3 m/s)
Visibility: 6 or more miles (10+ km)
Ceiling: at least 12,000 feet AGL
Clouds: few clouds at 1900 feet AGL
Weather: no significant weather observed at this time

METAR text: RPVP 180900Z 09018KT 9999 FEW019 29/22 Q1010 RMK A2983
Conditions at: RPVP (PUERTO PRINCESA , PH) observed 0900 UTC 18 January 2019
Temperature: 29.0°C (84°F)
Dewpoint: 22.0°C (72°F) [RH = 66%]
Pressure (altimeter): 29.82 inches Hg (1010.0 mb)
Winds: from the E (90 degrees) at 21 MPH (18 knots; 9.3 m/s)
Visibility: 6 or more miles (10+ km)
Ceiling: at least 12,000 feet AGL
Clouds: few clouds at 1900 feet AGL
Weather: no significant weather observed at this time

METAR text: RPVP 180800Z 09022KT 9999 FEW019 29/22 Q1009 RMK A2980
Conditions at: RPVP (PUERTO PRINCESA , PH) observed 0800 UTC 18 January 2019
Temperature: 29.0°C (84°F)
Dewpoint: 22.0°C (72°F) [RH = 66%]
Pressure (altimeter): 29.79 inches Hg (1009.0 mb)
Winds: from the E (90 degrees) at 25 MPH (22 knots; 11.3 m/s)
Visibility: 6 or more miles (10+ km)
Ceiling: at least 12,000 feet AGL
Clouds: few clouds at 1900 feet AGL
Weather: no significant weather observed at this time

METAR text: RPVP 180700Z 09022KT 9999 FEW019 30/22 Q1009 RMK A2980
Conditions at: RPVP (PUERTO PRINCESA , PH) observed 0700 UTC 18 January 2019
Temperature: 30.0°C (86°F)
Dewpoint: 22.0°C (72°F) [RH = 62%]
Pressure (altimeter): 29.79 inches Hg (1009.0 mb)
Winds: from the E (90 degrees) at 25 MPH (22 knots; 11.3 m/s)
Visibility: 6 or more miles (10+ km)
Ceiling: at least 12,000 feet AGL
Clouds: few clouds at 1900 feet AGL
Weather: no significant weather observed at this time

METAR text: RPVP 180600Z 09022KT 9999 FEW019 30/20 Q1010 RMK A2983
Conditions at: RPVP (PUERTO PRINCESA , PH) observed 0600 UTC 18 January 2019
Temperature: 30.0°C (86°F)
Dewpoint: 20.0°C (68°F) [RH = 55%]
Pressure (altimeter): 29.82 inches Hg (1010.0 mb)
Winds: from the E (90 degrees) at 25 MPH (22 knots; 11.3 m/s)
Visibility: 6 or more miles (10+ km)
Ceiling: at least 12,000 feet AGL
Clouds: few clouds at 1900 feet AGL
Weather: no significant weather observed at this time

METAR text: RPVP 180500Z 09020KT 9999 FEW019 30/22 Q1011 RMK A2985
Conditions at: RPVP (PUERTO PRINCESA , PH) observed 0500 UTC 18 January 2019
Temperature: 30.0°C (86°F)
Dewpoint: 22.0°C (72°F) [RH = 62%]
Pressure (altimeter): 29.85 inches Hg (1011.0 mb)
Winds: from the E (90 degrees) at 23 MPH (20 knots; 10.3 m/s)
Visibility: 6 or more miles (10+ km)
Ceiling: at least 12,000 feet AGL
Clouds: few clouds at 1900 feet AGL
Weather: no significant weather observed at this time

METAR text: RPVP 180400Z 09022KT 9999 FEW019 30/22 Q1012 RMK A2988
Conditions at: RPVP (PUERTO PRINCESA , PH) observed 0400 UTC 18 January 2019
Temperature: 30.0°C (86°F)
Dewpoint: 22.0°C (72°F) [RH = 62%]
Pressure (altimeter): 29.88 inches Hg (1012.0 mb)
Winds: from the E (90 degrees) at 25 MPH (22 knots; 11.3 m/s)
Visibility: 6 or more miles (10+ km)
Ceiling: at least 12,000 feet AGL
Clouds: few clouds at 1900 feet AGL
Weather: no significant weather observed at this time

Forecast for: RPVP (PUERTO PRINCESA , PH)
Text: TAF RPVP 191100Z 1912/2012 09012KT 9999 FEW019
Forecast period: 1200 UTC 19 January 2019 to 1200 UTC 20 January 2019
Forecast type: FROM: standard forecast or significant change
Winds: from the E (90 degrees) at 14 MPH (12 knots; 6.2 m/s)
Visibility: 6 or more miles 10+ km)
Ceiling: at least 12,000 feet AGL
Clouds: few clouds at 1900 feet AGL
Weather: no significant weather forecast for this period
Text: TEMPO 1918/1924 09018KT FEW019 SCT250
Forecast period: 1800 UTC 19 January 2019 to 0000 UTC 20 January 2019
Forecast type: TEMPORARY: The following changes expected for less than half the time period
Winds: from the E (90 degrees) at 21 MPH (18 knots; 9.3 m/s)
Visibility: missing
Ceiling: at least 12,000 feet AGL
Clouds: few clouds at 1900 feet AGL
scattered clouds at 25000 feet AGL
Weather: no significant weather forecast for this period